Peary Spirit — C6YM3 — position and weather

sailwx.info

Track history (hours):
 
Tides and Currents Weather Stations Pressure Air Temp Water Temp Dewpoint Dewpoint Depression Visibility Wind Speed Wind Dir Waves Ship Positions

Peary Spirit

Last reported at 2017-Jun-27 20:30 UTC. Time now 2017-Jun-27 20:40 UTC.
Position N 51°56' E 004°10'.

Length 249 m; draft 12.4 m.

Type: Ship (hazmat cat A). MMSI: 311027600.

Date/timePositionNaut miles runAvg speedWind from/ knotsBaromVisibWave heightAir tempDewpointWater temp
2017-Jun-27 20:30N 51°56' E 004°10'0 0.0
2017-Jun-27 20:00N 51°56' E 004°10'0 0.0
2017-Jun-27 19:30N 51°56' E 004°10'0 0.0
2017-Jun-27 19:00N 51°56' E 004°10'0 0.0
2017-Jun-27 18:30N 51°56' E 004°10'0 0.0
2017-Jun-27 18:00N 51°56' E 004°10'0 0.0
2017-Jun-27 17:30N 51°56' E 004°10'0 0.0
2017-Jun-27 17:00N 51°56' E 004°10'0 0.0
2017-Jun-27 16:30N 51°56' E 004°10'0 0.0
2017-Jun-27 16:00N 51°56' E 004°10'0 0.0
2017-Jun-27 15:30N 51°56' E 004°10'0 0.0
2017-Jun-27 15:00N 51°56' E 004°10'0 0.0
2017-Jun-27 13:59N 51°56' E 004°10'0 0.0
2017-Jun-27 13:30N 51°56' E 004°10'0 0.0
2017-Jun-27 13:00N 51°56' E 004°10'0 0.0
2017-Jun-27 12:30N 51°56' E 004°10'0 0.0
2017-Jun-27 12:00N 51°56' E 004°10'0 0.0
2017-Jun-27 11:30N 51°56' E 004°10'0 0.0
2017-Jun-27 10:59N 51°56' E 004°10'0 0.0
2017-Jun-27 10:30N 51°56' E 004°10'0 0.0
2017-Jun-27 10:00N 51°56' E 004°10'0 0.0
2017-Jun-27 09:25N 51°56' E 004°10'0 0.0
2017-Jun-27 09:00N 51°56' E 004°10'0 0.0
2017-Jun-27 08:30N 51°56' E 004°10'0 0.0
2017-Jun-27 08:00N 51°56' E 004°10'0 0.0
2017-Jun-27 07:30N 51°56' E 004°10'0 0.0
2017-Jun-27 07:00N 51°56' E 004°10'0 0.0
2017-Jun-27 06:30N 51°56' E 004°10'0 0.0
2017-Jun-27 06:00N 51°56' E 004°10'0 0.0
2017-Jun-27 05:30N 51°56' E 004°10'0 0.0
2017-Jun-27 05:00N 51°56' E 004°10'0 0.0
2017-Jun-27 04:30N 51°56' E 004°10'0 0.0
2017-Jun-27 04:00N 51°56' E 004°10'0 0.0
2017-Jun-27 03:30N 51°56' E 004°10'0 0.0
2017-Jun-27 03:00N 51°56' E 004°10'0 0.0
2017-Jun-27 02:30N 51°56' E 004°10'0 0.0
2017-Jun-27 02:00N 51°56' E 004°10'0 0.0
2017-Jun-27 01:30N 51°56' E 004°10'0 0.0
2017-Jun-27 01:00N 51°56' E 004°10'0 0.0
2017-Jun-27 00:30N 51°56' E 004°10'0 0.0
2017-Jun-27 00:01N 51°56' E 004°10'0 0.4
2017-Jun-26 23:30N 51°57' E 004°10'1 2.4
2017-Jun-26 23:01N 51°58' E 004°08'4 7.1
2017-Jun-26 22:31N 51°59' E 004°03'3 6.6
2017-Jun-26 22:01N 52°00' E 003°58'4 7.7
2017-Jun-26 21:30N 51°60' E 003°52'510.0
2017-Jun-26 21:01N 51°59' E 003°44'4 8.6
2017-Jun-26 20:31N 51°58' E 003°37'1 2.9
2017-Jun-26 20:00N 51°60' E 003°38'1 2.3
2017-Jun-26 19:30N 52°01' E 003°38'2 4.1
2017-Jun-26 19:00N 52°03' E 003°40'2 4.6
2017-Jun-26 18:30N 52°05' E 003°40'4 8.5
2017-Jun-26 18:01N 52°09' E 003°40'1 2.9
2017-Jun-26 17:30N 52°11' E 003°40'0 0.0
2017-Jun-26 17:00N 52°11' E 003°40'0 0.0
2017-Jun-26 16:30N 52°11' E 003°40'0 0.0
2017-Jun-26 16:00N 52°11' E 003°40'0 0.0
2017-Jun-26 15:30N 52°11' E 003°40'0 0.0
2017-Jun-26 15:00N 52°11' E 003°40'0 0.2
2017-Jun-26 14:29N 52°11' E 003°40'0 0.0
2017-Jun-26 09:48N 52°10' E 003°40'0 0.0
2017-Jun-26 09:30N 52°10' E 003°40'0 0.1
2017-Jun-26 07:40N 52°10' E 003°40'0 0.5
2017-Jun-26 07:30N 52°11' E 003°40'0 0.2
2017-Jun-26 06:59N 52°11' E 003°40'0 0.1
2017-Jun-26 06:08N 52°11' E 003°40'0 0.0
2017-Jun-26 06:00N 52°11' E 003°40'0 0.0
2017-Jun-26 05:30N 52°11' E 003°40'0 0.0
2017-Jun-26 05:00N 52°11' E 003°40'0 0.0
2017-Jun-26 04:30N 52°11' E 003°40'0 0.0
2017-Jun-26 03:53N 52°11' E 003°40'0 0.0
2017-Jun-26 03:30N 52°11' E 003°40'0 0.0
2017-Jun-26 03:00N 52°11' E 003°40'0 0.1
2017-Jun-26 02:29N 52°11' E 003°40'0 0.1
2017-Jun-26 01:59N 52°11' E 003°40'0 0.1
2017-Jun-26 01:30N 52°11' E 003°40'0 0.2
2017-Jun-26 01:00N 52°10' E 003°40'0 0.2
2017-Jun-26 00:30N 52°10' E 003°40'0 0.0
2017-Jun-25 23:08N 52°10' E 003°40'0 0.0
2017-Jun-25 23:00N 52°10' E 003°40'0 0.0
2017-Jun-25 22:30N 52°10' E 003°40'0 0.1
2017-Jun-25 22:00N 52°10' E 003°40'0 0.3
2017-Jun-25 21:30N 52°10' E 003°40'  
2017-Jun-22 11:37N 57°18' W 001°26'215.0
2017-Jun-22 11:30N 57°17' W 001°29'714.7
2017-Jun-22 11:01N 57°14' W 001°41'713.4
2017-Jun-22 10:30N 57°10' W 001°51'5 9.9
2017-Jun-22 10:00N 57°07' W 001°58'1 1.6
2017-Jun-22 09:30N 57°07' W 001°59'510.0
2017-Jun-22 09:00N 57°03' W 001°54'510.5
2017-Jun-22 08:30N 56°59' W 001°49'510.4
2017-Jun-22 07:59N 56°54' W 001°43'711.5
2017-Jun-22 07:21N 56°48' W 001°35'22313.9
2017-Jun-21 15:16N 53°48' E 002°16'415.3
2017-Jun-21 15:00N 53°45' E 002°21'1615.5
2017-Jun-21 14:00N 53°34' E 002°38'816.1
2017-Jun-21 13:30N 53°27' E 002°46'816.9
2017-Jun-21 13:00N 53°19' E 002°48'816.5
2017-Jun-21 12:30N 53°11' E 002°44'916.9
2017-Jun-21 12:00N 53°02' E 002°40'917.5
2017-Jun-21 11:30N 52°54' E 002°40'917.3
2017-Jun-21 11:00N 52°45' E 002°41'917.1
2017-Jun-21 10:30N 52°37' E 002°41'816.7
2017-Jun-21 10:00N 52°28' E 002°41'816.3
2017-Jun-21 09:30N 52°20' E 002°41'815.9
2017-Jun-21 09:00N 52°12' E 002°40'815.5
2017-Jun-21 08:29N 52°04' E 002°40'815.2
2017-Jun-21 07:56N 51°56' E 002°39'614.9
2017-Jun-21 07:31N 51°50' E 002°38'814.0
2017-Jun-21 06:57N 51°43' E 002°31'714.2
2017-Jun-21 06:28N 51°38' E 002°24'614.0
2017-Jun-21 06:00N 51°33' E 002°17'713.7
2017-Jun-21 05:30N 51°28' E 002°10'613.0
2017-Jun-21 05:01N 51°21' E 002°07'713.2
2017-Jun-21 04:31N 51°15' E 002°05'713.3
2017-Jun-21 04:00N 51°11' E 001°57'713.4
2017-Jun-21 03:31N 51°08' E 001°47'713.1
2017-Jun-21 03:01N 51°04' E 001°39'713.6
2017-Jun-21 02:30N 50°59' E 001°31'713.5
2017-Jun-21 02:00N 50°54' E 001°26'814.6
2017-Jun-21 01:27N 50°46' E 001°23'714.0
2017-Jun-21 00:58N 50°40' E 001°17'1414.5
2017-Jun-20 23:59N 50°32' E 000°58'714.8
2017-Jun-20 23:30N 50°30' E 000°47'714.5
2017-Jun-20 23:00N 50°27' E 000°37'714.4
2017-Jun-20 22:29N 50°25' E 000°25'714.3
2017-Jun-20 22:00N 50°24' E 000°15'714.4
2017-Jun-20 21:30N 50°22' E 000°04'714.2
2017-Jun-20 21:00N 50°22' W 000°07'714.7
2017-Jun-20 20:30N 50°25' W 000°17'714.8
2017-Jun-20 20:00N 50°28' W 000°28'815.5
2017-Jun-20 19:30N 50°31' W 000°39'714.6
2017-Jun-20 19:01N 50°35' W 000°49'713.9
2017-Jun-20 18:30N 50°40' W 000°56'510.0
2017-Jun-20 18:00N 50°44' W 001°02'714.4
2017-Jun-20 17:30N 50°46' W 001°13'4 7.8
2017-Jun-20 17:00N 50°48' W 001°18'2 4.8
2017-Jun-20 16:30N 50°50' W 001°19'0 0.0
2017-Jun-20 16:00N 50°50' W 001°19'0 0.0
2017-Jun-18 19:42N 50°50' W 001°19'0 0.1
2017-Jun-18 19:31N 50°50' W 001°19'1 2.3
2017-Jun-18 19:01N 50°49' W 001°18'3 5.5
2017-Jun-18 18:30N 50°47' W 001°18'3 6.5
2017-Jun-18 18:00N 50°46' W 001°12'2 4.1
2017-Jun-18 17:30N 50°46' W 001°09'2 4.8
2017-Jun-18 17:00N 50°45' W 001°06'510.2
2017-Jun-18 16:30N 50°43' W 000°58'5 9.0
2017-Jun-18 16:00N 50°38' W 000°58'3 6.3
2017-Jun-18 15:30N 50°35' W 000°59'2 3.5
2017-Jun-18 15:00N 50°33' W 000°59'2 3.5
2017-Jun-18 14:30N 50°32' W 000°59'1 2.6
2017-Jun-18 14:00N 50°31' W 001°01'2 3.2
2017-Jun-18 13:30N 50°33' W 001°00'1 2.8
2017-Jun-18 13:00N 50°34' W 000°60'0 0.9
2017-Jun-18 12:30N 50°34' W 000°60'4 8.8
2017-Jun-18 12:00N 50°31' W 000°54'510.9
2017-Jun-18 11:30N 50°30' W 000°46'612.2
2017-Jun-18 11:00N 50°29' W 000°36'612.1
2017-Jun-18 10:30N 50°30' W 000°27'612.2
2017-Jun-18 10:00N 50°31' W 000°17'612.4
2017-Jun-18 09:30N 50°31' W 000°08'612.3
2017-Jun-18 09:00N 50°32' E 000°02'612.2
2017-Jun-18 08:30N 50°34' E 000°11'612.4
2017-Jun-18 08:00N 50°35' E 000°21'612.9
2017-Jun-18 07:30N 50°36' E 000°31'612.4
2017-Jun-18 07:00N 50°39' E 000°39'1812.7
2017-Jun-18 05:33N 50°48' E 001°05'112.7
2017-Jun-18 05:27N 50°49' E 001°07'712.0
2017-Jun-18 04:51N 50°53' E 001°16'412.1
2017-Jun-18 04:29N 50°56' E 001°20'612.2
2017-Jun-18 04:00N 51°01' E 001°26'612.1
2017-Jun-18 03:30N 51°05' E 001°33'612.4
2017-Jun-18 03:00N 51°10' E 001°40'611.6
2017-Jun-18 02:30N 51°14' E 001°46'612.2
2017-Jun-18 02:00N 51°19' E 001°51'612.1
2017-Jun-18 01:30N 51°24' E 001°56'612.7
2017-Jun-18 01:00N 51°29' E 002°03'612.5
2017-Jun-18 00:30N 51°34' E 002°09'612.3
2017-Jun-18 00:00N 51°38' E 002°16'612.8
2017-Jun-17 23:30N 51°43' E 002°23'812.5
2017-Jun-17 22:53N 51°49' E 002°31'  
Track history (hours):
 
Tides and Currents Weather Stations Pressure Air Temp Water Temp Dewpoint Dewpoint Depression Visibility Wind Speed Wind Dir Waves Ship Positions

Peary Spirit

Last reported at 2017-Jun-27 20:30 UTC. Time now 2017-Jun-27 20:40 UTC.
Position N 51°56' E 004°10'.

Length 249 m; draft 12.4 m.

Type: Ship (hazmat cat A). MMSI: 311027600.

Date/timePositionNaut miles runAvg speedWind from/ knotsBaromVisibWave heightAir tempDewpointWater temp
2017-Jun-27 20:30N 51°56' E 004°10'0 0.0
2017-Jun-27 20:00N 51°56' E 004°10'0 0.0
2017-Jun-27 19:30N 51°56' E 004°10'0 0.0
2017-Jun-27 19:00N 51°56' E 004°10'0 0.0
2017-Jun-27 18:30N 51°56' E 004°10'0 0.0
2017-Jun-27 18:00N 51°56' E 004°10'0 0.0
2017-Jun-27 17:30N 51°56' E 004°10'0 0.0
2017-Jun-27 17:00N 51°56' E 004°10'0 0.0
2017-Jun-27 16:30N 51°56' E 004°10'0 0.0
2017-Jun-27 16:00N 51°56' E 004°10'0 0.0
2017-Jun-27 15:30N 51°56' E 004°10'0 0.0
2017-Jun-27 15:00N 51°56' E 004°10'0 0.0
2017-Jun-27 13:59N 51°56' E 004°10'0 0.0
2017-Jun-27 13:30N 51°56' E 004°10'0 0.0
2017-Jun-27 13:00N 51°56' E 004°10'0 0.0
2017-Jun-27 12:30N 51°56' E 004°10'0 0.0
2017-Jun-27 12:00N 51°56' E 004°10'0 0.0
2017-Jun-27 11:30N 51°56' E 004°10'0 0.0
2017-Jun-27 10:59N 51°56' E 004°10'0 0.0
2017-Jun-27 10:30N 51°56' E 004°10'0 0.0
2017-Jun-27 10:00N 51°56' E 004°10'0 0.0
2017-Jun-27 09:25N 51°56' E 004°10'0 0.0
2017-Jun-27 09:00N 51°56' E 004°10'0 0.0
2017-Jun-27 08:30N 51°56' E 004°10'0 0.0
2017-Jun-27 08:00N 51°56' E 004°10'0 0.0
2017-Jun-27 07:30N 51°56' E 004°10'0 0.0
2017-Jun-27 07:00N 51°56' E 004°10'0 0.0
2017-Jun-27 06:30N 51°56' E 004°10'0 0.0
2017-Jun-27 06:00N 51°56' E 004°10'0 0.0
2017-Jun-27 05:30N 51°56' E 004°10'0 0.0
2017-Jun-27 05:00N 51°56' E 004°10'0 0.0
2017-Jun-27 04:30N 51°56' E 004°10'0 0.0
2017-Jun-27 04:00N 51°56' E 004°10'0 0.0
2017-Jun-27 03:30N 51°56' E 004°10'0 0.0
2017-Jun-27 03:00N 51°56' E 004°10'0 0.0
2017-Jun-27 02:30N 51°56' E 004°10'0 0.0
2017-Jun-27 02:00N 51°56' E 004°10'0 0.0
2017-Jun-27 01:30N 51°56' E 004°10'0 0.0
2017-Jun-27 01:00N 51°56' E 004°10'0 0.0
2017-Jun-27 00:30N 51°56' E 004°10'0 0.0
2017-Jun-27 00:01N 51°56' E 004°10'0 0.4
2017-Jun-26 23:30N 51°57' E 004°10'1 2.4
2017-Jun-26 23:01N 51°58' E 004°08'4 7.1
2017-Jun-26 22:31N 51°59' E 004°03'3 6.6
2017-Jun-26 22:01N 52°00' E 003°58'4 7.7
2017-Jun-26 21:30N 51°60' E 003°52'510.0
2017-Jun-26 21:01N 51°59' E 003°44'4 8.6
2017-Jun-26 20:31N 51°58' E 003°37'1 2.9
2017-Jun-26 20:00N 51°60' E 003°38'1 2.3
2017-Jun-26 19:30N 52°01' E 003°38'2 4.1
2017-Jun-26 19:00N 52°03' E 003°40'2 4.6
2017-Jun-26 18:30N 52°05' E 003°40'4 8.5
2017-Jun-26 18:01N 52°09' E 003°40'1 2.9
2017-Jun-26 17:30N 52°11' E 003°40'0 0.0
2017-Jun-26 17:00N 52°11' E 003°40'0 0.0
2017-Jun-26 16:30N 52°11' E 003°40'0 0.0
2017-Jun-26 16:00N 52°11' E 003°40'0 0.0
2017-Jun-26 15:30N 52°11' E 003°40'0 0.0
2017-Jun-26 15:00N 52°11' E 003°40'0 0.2
2017-Jun-26 14:29N 52°11' E 003°40'0 0.0
2017-Jun-26 09:48N 52°10' E 003°40'0 0.0
2017-Jun-26 09:30N 52°10' E 003°40'0 0.1
2017-Jun-26 07:40N 52°10' E 003°40'0 0.5
2017-Jun-26 07:30N 52°11' E 003°40'0 0.2
2017-Jun-26 06:59N 52°11' E 003°40'0 0.1
2017-Jun-26 06:08N 52°11' E 003°40'0 0.0
2017-Jun-26 06:00N 52°11' E 003°40'0 0.0
2017-Jun-26 05:30N 52°11' E 003°40'0 0.0
2017-Jun-26 05:00N 52°11' E 003°40'0 0.0
2017-Jun-26 04:30N 52°11' E 003°40'0 0.0
2017-Jun-26 03:53N 52°11' E 003°40'0 0.0
2017-Jun-26 03:30N 52°11' E 003°40'0 0.0
2017-Jun-26 03:00N 52°11' E 003°40'0 0.1
2017-Jun-26 02:29N 52°11' E 003°40'0 0.1
2017-Jun-26 01:59N 52°11' E 003°40'0 0.1
2017-Jun-26 01:30N 52°11' E 003°40'0 0.2
2017-Jun-26 01:00N 52°10' E 003°40'0 0.2
2017-Jun-26 00:30N 52°10' E 003°40'0 0.0
2017-Jun-25 23:08N 52°10' E 003°40'0 0.0
2017-Jun-25 23:00N 52°10' E 003°40'0 0.0
2017-Jun-25 22:30N 52°10' E 003°40'0 0.1
2017-Jun-25 22:00N 52°10' E 003°40'0 0.3
2017-Jun-25 21:30N 52°10' E 003°40'  
2017-Jun-22 11:37N 57°18' W 001°26'215.0
2017-Jun-22 11:30N 57°17' W 001°29'714.7
2017-Jun-22 11:01N 57°14' W 001°41'713.4
2017-Jun-22 10:30N 57°10' W 001°51'5 9.9
2017-Jun-22 10:00N 57°07' W 001°58'1 1.6
2017-Jun-22 09:30N 57°07' W 001°59'510.0
2017-Jun-22 09:00N 57°03' W 001°54'510.5
2017-Jun-22 08:30N 56°59' W 001°49'510.4
2017-Jun-22 07:59N 56°54' W 001°43'711.5
2017-Jun-22 07:21N 56°48' W 001°35'22313.9
2017-Jun-21 15:16N 53°48' E 002°16'415.3
2017-Jun-21 15:00N 53°45' E 002°21'1615.5
2017-Jun-21 14:00N 53°34' E 002°38'816.1
2017-Jun-21 13:30N 53°27' E 002°46'816.9
2017-Jun-21 13:00N 53°19' E 002°48'816.5
2017-Jun-21 12:30N 53°11' E 002°44'916.9
2017-Jun-21 12:00N 53°02' E 002°40'917.5
2017-Jun-21 11:30N 52°54' E 002°40'917.3
2017-Jun-21 11:00N 52°45' E 002°41'917.1
2017-Jun-21 10:30N 52°37' E 002°41'816.7
2017-Jun-21 10:00N 52°28' E 002°41'816.3
2017-Jun-21 09:30N 52°20' E 002°41'815.9
2017-Jun-21 09:00N 52°12' E 002°40'815.5
2017-Jun-21 08:29N 52°04' E 002°40'815.2
2017-Jun-21 07:56N 51°56' E 002°39'614.9
2017-Jun-21 07:31N 51°50' E 002°38'814.0
2017-Jun-21 06:57N 51°43' E 002°31'714.2
2017-Jun-21 06:28N 51°38' E 002°24'614.0
2017-Jun-21 06:00N 51°33' E 002°17'713.7
2017-Jun-21 05:30N 51°28' E 002°10'613.0
2017-Jun-21 05:01N 51°21' E 002°07'713.2
2017-Jun-21 04:31N 51°15' E 002°05'713.3
2017-Jun-21 04:00N 51°11' E 001°57'713.4
2017-Jun-21 03:31N 51°08' E 001°47'713.1
2017-Jun-21 03:01N 51°04' E 001°39'713.6
2017-Jun-21 02:30N 50°59' E 001°31'713.5
2017-Jun-21 02:00N 50°54' E 001°26'814.6
2017-Jun-21 01:27N 50°46' E 001°23'714.0
2017-Jun-21 00:58N 50°40' E 001°17'1414.5
2017-Jun-20 23:59N 50°32' E 000°58'714.8
2017-Jun-20 23:30N 50°30' E 000°47'714.5
2017-Jun-20 23:00N 50°27' E 000°37'714.4
2017-Jun-20 22:29N 50°25' E 000°25'714.3
2017-Jun-20 22:00N 50°24' E 000°15'714.4
2017-Jun-20 21:30N 50°22' E 000°04'714.2
2017-Jun-20 21:00N 50°22' W 000°07'714.7
2017-Jun-20 20:30N 50°25' W 000°17'714.8
2017-Jun-20 20:00N 50°28' W 000°28'815.5
2017-Jun-20 19:30N 50°31' W 000°39'714.6
2017-Jun-20 19:01N 50°35' W 000°49'713.9
2017-Jun-20 18:30N 50°40' W 000°56'510.0
2017-Jun-20 18:00N 50°44' W 001°02'714.4
2017-Jun-20 17:30N 50°46' W 001°13'4 7.8
2017-Jun-20 17:00N 50°48' W 001°18'2 4.8
2017-Jun-20 16:30N 50°50' W 001°19'0 0.0
2017-Jun-20 16:00N 50°50' W 001°19'0 0.0
2017-Jun-18 19:42N 50°50' W 001°19'0 0.1
2017-Jun-18 19:31N 50°50' W 001°19'1 2.3
2017-Jun-18 19:01N 50°49' W 001°18'3 5.5
2017-Jun-18 18:30N 50°47' W 001°18'3 6.5
2017-Jun-18 18:00N 50°46' W 001°12'2 4.1
2017-Jun-18 17:30N 50°46' W 001°09'2 4.8
2017-Jun-18 17:00N 50°45' W 001°06'510.2
2017-Jun-18 16:30N 50°43' W 000°58'5 9.0
2017-Jun-18 16:00N 50°38' W 000°58'3 6.3
2017-Jun-18 15:30N 50°35' W 000°59'2 3.5
2017-Jun-18 15:00N 50°33' W 000°59'2 3.5
2017-Jun-18 14:30N 50°32' W 000°59'1 2.6
2017-Jun-18 14:00N 50°31' W 001°01'2 3.2
2017-Jun-18 13:30N 50°33' W 001°00'1 2.8
2017-Jun-18 13:00N 50°34' W 000°60'0 0.9
2017-Jun-18 12:30N 50°34' W 000°60'4 8.8
2017-Jun-18 12:00N 50°31' W 000°54'510.9
2017-Jun-18 11:30N 50°30' W 000°46'612.2
2017-Jun-18 11:00N 50°29' W 000°36'612.1
2017-Jun-18 10:30N 50°30' W 000°27'612.2
2017-Jun-18 10:00N 50°31' W 000°17'612.4
2017-Jun-18 09:30N 50°31' W 000°08'612.3
2017-Jun-18 09:00N 50°32' E 000°02'612.2
2017-Jun-18 08:30N 50°34' E 000°11'612.4
2017-Jun-18 08:00N 50°35' E 000°21'612.9
2017-Jun-18 07:30N 50°36' E 000°31'612.4
2017-Jun-18 07:00N 50°39' E 000°39'1812.7
2017-Jun-18 05:33N 50°48' E 001°05'112.7
2017-Jun-18 05:27N 50°49' E 001°07'712.0
2017-Jun-18 04:51N 50°53' E 001°16'412.1
2017-Jun-18 04:29N 50°56' E 001°20'612.2
2017-Jun-18 04:00N 51°01' E 001°26'612.1
2017-Jun-18 03:30N 51°05' E 001°33'612.4
2017-Jun-18 03:00N 51°10' E 001°40'611.6
2017-Jun-18 02:30N 51°14' E 001°46'612.2
2017-Jun-18 02:00N 51°19' E 001°51'612.1
2017-Jun-18 01:30N 51°24' E 001°56'612.7
2017-Jun-18 01:00N 51°29' E 002°03'612.5
2017-Jun-18 00:30N 51°34' E 002°09'612.3
2017-Jun-18 00:00N 51°38' E 002°16'612.8
2017-Jun-17 23:30N 51°43' E 002°23'812.5
2017-Jun-17 22:53N 51°49' E 002°31'  

Dump ship's entire track history